KROC

Greater Rochester International Airport

Rochester, New York, USA
METAR KROC 200054Z 24010KT 10SM BKN180 02/M06 A2980 RMK AO2 SLP099 T00171056
Observed Flight Rules
Jan-20 @ 00:54 UTC (25 minutes ago) Visual Flight Rules
Wind Visibility Clouds
240° at 10 knots 10 miles
  • Broken at 18,000' AGL
Temperatures Readings
Current 2°C / 36°F
Dewpoint -6°C / 21°F
Humidity 56%
Altimeter 29.8" Hg
Pressure 1009.9 hPa
Elevation 178
METAR KROC 200054Z 24010KT 10SM BKN180 02/M06 A2980 RMK AO2 SLP099 T00171056
Observed Flight Rules
Jan-20 @ 00:54 UTC
(25 minutes ago)
VFR
Wind Visibility
240° at 10 knots 10 miles
Clouds
  • Broken at 18,000' AGL
Temperature Dewpoint
2°C / 36°F -6°C / 21°F
Humidity Altimeter Pressure
56% 29.8" Hg 1009.9 hPa